Skip Navigation Links Skip Navigation Links

Current Weather

Stewart Int'L, Newburgh, N.Y.

For information only: do not use for flight planning or navigation.
Latest weather
Observation time Monday, June 21, 2021 9:45 PM EDT
Local time Monday, June 21, 2021 10:08 PM EDT
Flight conditions Visual Meteorological Conditions
Winds
Wind direction West (260°)
Wind speed 14 mph
Visibility 6 mi.
Present weather mist
Sky condition
Ceiling 5,000 ft. broken clouds
Cloud layer broken clouds 5,000 ft.
Temperature 81°F
Dewpoint 72°F
Altimeter 29.61 in.Hg
Derived measurements
Relative humidity 74%
Heat index 85°F
Density altitude 2587 ft.
Remarks
Thunderstorm moving east lightning observed (cloud to cloud, cloud to ground).
METAR KSWF 220145Z 26012KT 6SM TS-R BR BKN050 27/22 A2961 RMK TS OH MOV E FREQ LTGCCCG

Settings

Location code

InnerDrive.Weather 4.0.6770.0 Release CLR 4.0.30319.42000
Copyright ©2018 Inner Drive Technology. All rights reserved. Portions Copyright ©1986-2018 David Braverman.

Find weather

Site navigation


Skip Navigation Links

Place info

Page info

PayPal - The safer, easier way to pay online!

Return home.

Copyright ©2021 Inner Drive Technology. Purveyors of fine, hand-crafted computer software. Page printed 2021-06-22T02:08:14 UTC.